createdAt,value
2023-05-05T00:01:03.971Z,25.00
2023-05-05T00:02:04.036Z,25.00
2023-05-05T00:03:03.965Z,25.00
2023-05-05T00:04:03.953Z,25.00
2023-05-05T00:05:03.905Z,25.00
2023-05-05T00:06:03.897Z,25.00
2023-05-05T00:07:03.902Z,28.04
2023-05-05T00:08:03.874Z,27.35
2023-05-05T00:09:03.875Z,26.44
2023-05-05T00:10:03.837Z,25.00
2023-05-05T00:11:03.830Z,28.18
2023-05-05T00:12:03.812Z,29.96
2023-05-05T00:13:03.839Z,27.44
2023-05-05T00:14:03.787Z,25.61
2023-05-05T00:15:06.746Z,28.42
2023-05-05T00:16:03.759Z,28.53
2023-05-05T00:17:03.758Z,28.47
2023-05-05T00:18:03.773Z,28.77
2023-05-05T00:19:03.751Z,29.07
2023-05-05T00:20:03.733Z,30.01
2023-05-05T00:21:03.695Z,30.41
2023-05-05T00:22:03.700Z,28.96
2023-05-05T00:23:03.667Z,27.77
2023-05-05T00:24:03.659Z,29.05
2023-05-05T00:25:03.651Z,25.00
2023-05-05T00:26:03.646Z,28.67
2023-05-05T00:27:03.626Z,29.34
2023-05-05T00:28:03.625Z,29.78
2023-05-05T00:29:03.649Z,31.10
2023-05-05T00:30:03.587Z,27.62
2023-05-05T00:31:03.654Z,26.01
2023-05-05T00:32:03.602Z,27.55
2023-05-05T00:33:03.599Z,27.26
2023-05-05T00:34:03.550Z,31.18
2023-05-05T00:35:03.557Z,30.66
2023-05-05T00:36:03.571Z,28.47
2023-05-05T00:37:03.539Z,29.84
2023-05-05T00:38:03.621Z,30.83
2023-05-05T00:39:03.678Z,30.50
2023-05-05T00:40:03.757Z,32.48
2023-05-05T00:41:03.855Z,29.67
2023-05-05T00:42:03.843Z,28.42
2023-05-05T00:43:03.845Z,29.06
2023-05-05T00:44:03.821Z,29.51
2023-05-05T00:45:03.811Z,27.71
2023-05-05T00:46:03.872Z,27.40
2023-05-05T00:47:03.890Z,29.72
2023-05-05T00:48:03.904Z,30.21
2023-05-05T00:49:03.927Z,27.99
2023-05-05T00:50:03.877Z,31.11
2023-05-05T00:51:03.858Z,30.80
2023-05-05T00:52:03.844Z,28.58
2023-05-05T00:53:03.940Z,30.21
2023-05-05T00:54:04.002Z,30.17
2023-05-05T00:55:04.095Z,29.20
2023-05-05T00:56:04.183Z,30.43
2023-05-05T00:57:04.293Z,31.81
2023-05-05T00:58:04.468Z,32.31
2023-05-05T00:59:04.341Z,27.94
2023-05-05T01:00:04.345Z,28.74
2023-05-05T01:01:04.332Z,30.57
2023-05-05T01:02:04.401Z,28.94
2023-05-05T01:03:04.397Z,31.76
2023-05-05T01:04:04.390Z,28.70
2023-05-05T01:05:04.296Z,29.61
2023-05-05T01:06:04.383Z,30.58
2023-05-05T01:07:04.474Z,29.89
2023-05-05T01:08:04.548Z,29.69
2023-05-05T01:09:04.551Z,30.91
2023-05-05T01:10:18.981Z,26.42
2023-05-05T01:11:05.521Z,26.65
2023-05-05T01:12:04.531Z,27.28
2023-05-05T01:13:04.530Z,28.25
2023-05-05T01:14:04.485Z,28.25
2023-05-05T01:15:04.468Z,29.89
2023-05-05T01:16:04.475Z,27.20
2023-05-05T01:17:04.441Z,30.19
2023-05-05T01:18:04.494Z,28.80
2023-05-05T01:19:04.430Z,28.66
2023-05-05T01:20:04.395Z,26.91
2023-05-05T01:21:04.387Z,27.93
2023-05-05T01:22:04.371Z,27.32
2023-05-05T01:23:04.367Z,28.92
2023-05-05T01:24:04.347Z,28.00
2023-05-05T01:25:04.323Z,29.91
2023-05-05T01:26:04.306Z,30.95
2023-05-05T01:27:04.290Z,30.37
2023-05-05T01:28:04.269Z,31.36
2023-05-05T01:29:04.246Z,30.86
2023-05-05T01:30:04.240Z,29.97
2023-05-05T01:31:04.248Z,31.64
2023-05-05T01:32:04.278Z,31.57
2023-05-05T01:33:04.216Z,29.51
2023-05-05T01:34:04.205Z,29.64
2023-05-05T01:35:04.208Z,31.94
2023-05-05T01:36:04.191Z,29.63
2023-05-05T01:37:04.188Z,31.20
2023-05-05T01:38:04.188Z,29.08
2023-05-05T01:39:04.172Z,29.67
2023-05-05T01:40:04.304Z,30.36
2023-05-05T01:41:04.211Z,28.48
2023-05-05T01:42:04.184Z,30.40
2023-05-05T01:43:04.201Z,28.15
2023-05-05T01:44:04.181Z,28.48
2023-05-05T01:45:04.171Z,29.74
2023-05-05T01:46:04.206Z,29.84
2023-05-05T01:47:04.149Z,30.04
2023-05-05T01:48:04.183Z,29.92
2023-05-05T01:49:04.115Z,30.37
2023-05-05T01:50:04.130Z,29.35
2023-05-05T01:51:04.110Z,29.66
2023-05-05T01:52:04.093Z,27.01
2023-05-05T01:53:04.098Z,28.36
2023-05-05T01:54:04.059Z,30.85
2023-05-05T01:55:04.055Z,27.91
2023-05-05T01:56:04.024Z,33.02
2023-05-05T01:57:04.002Z,30.91
2023-05-05T01:58:04.024Z,29.35
2023-05-05T01:59:04.016Z,29.01
2023-05-05T02:00:03.991Z,29.33
2023-05-05T02:01:04.037Z,27.57
2023-05-05T02:02:04.030Z,28.32
2023-05-05T02:03:04.111Z,28.22
2023-05-05T02:04:04.050Z,30.37
2023-05-05T02:05:04.082Z,27.28
2023-05-05T02:06:04.136Z,27.73
2023-05-05T02:07:04.202Z,28.02
2023-05-05T02:08:04.220Z,28.89
2023-05-05T02:09:04.253Z,29.22
2023-05-05T02:10:04.332Z,29.07
2023-05-05T02:11:04.332Z,28.63
2023-05-05T02:12:04.380Z,27.81
2023-05-05T02:13:04.575Z,27.97
2023-05-05T02:14:04.525Z,29.53
2023-05-05T02:15:04.536Z,29.01
2023-05-05T02:16:04.643Z,27.66
2023-05-05T02:17:04.655Z,26.46
2023-05-05T02:18:04.743Z,28.31
2023-05-05T02:19:04.749Z,30.90
2023-05-05T02:20:04.780Z,28.14
2023-05-05T02:21:04.838Z,29.27
2023-05-05T02:22:04.922Z,27.84
2023-05-05T02:23:05.037Z,27.15
2023-05-05T02:24:05.038Z,29.58
2023-05-05T02:25:05.037Z,28.55
2023-05-05T02:26:05.020Z,29.84
2023-05-05T02:27:05.026Z,27.48
2023-05-05T02:28:05.045Z,28.73
2023-05-05T02:29:05.102Z,29.01
2023-05-05T02:30:05.266Z,30.39
2023-05-05T02:31:05.208Z,29.91
2023-05-05T02:32:05.192Z,26.57
2023-05-05T02:33:05.272Z,30.95
2023-05-05T02:34:05.190Z,29.16
2023-05-05T02:35:05.200Z,30.55
2023-05-05T02:36:05.268Z,28.12
2023-05-05T02:37:05.266Z,28.19
2023-05-05T02:38:05.267Z,26.67
2023-05-05T02:39:05.265Z,27.01
2023-05-05T02:40:05.301Z,29.05
2023-05-05T02:41:05.261Z,27.23
2023-05-05T02:42:05.323Z,29.37
2023-05-05T02:43:05.551Z,25.96
2023-05-05T02:44:05.529Z,28.20
2023-05-05T02:45:05.632Z,28.20
2023-05-05T02:46:05.724Z,28.92
2023-05-05T02:47:05.738Z,29.36
2023-05-05T02:48:05.828Z,26.03
2023-05-05T02:49:05.744Z,27.67
2023-05-05T02:50:05.901Z,25.00
2023-05-05T02:51:05.753Z,25.39
2023-05-05T02:52:05.758Z,24.89
2023-05-05T02:53:05.778Z,24.64
2023-05-05T02:54:05.787Z,25.03
2023-05-05T02:55:05.788Z,26.80
2023-05-05T02:56:05.789Z,23.70
2023-05-05T02:57:05.829Z,25.00
2023-05-05T02:58:05.831Z,23.92
2023-05-05T02:59:05.865Z,26.02
2023-05-05T03:00:06.347Z,23.79
2023-05-05T03:01:05.962Z,25.00
2023-05-05T03:02:05.966Z,25.64
2023-05-05T03:03:06.092Z,25.00
2023-05-05T03:04:06.042Z,25.00
2023-05-05T03:05:06.097Z,24.37
2023-05-05T03:06:06.128Z,26.11
2023-05-05T03:07:06.185Z,28.73
2023-05-05T03:08:06.251Z,24.18
2023-05-05T03:09:06.293Z,25.00
2023-05-05T03:10:06.570Z,26.61
2023-05-05T03:11:06.395Z,25.00
2023-05-05T03:12:06.444Z,25.00
2023-05-05T03:13:06.536Z,25.23
2023-05-05T03:14:06.547Z,28.04
2023-05-05T03:15:06.614Z,25.33
2023-05-05T03:16:06.781Z,27.49
2023-05-05T03:17:06.720Z,25.00
2023-05-05T03:18:06.824Z,27.82
2023-05-05T03:19:06.871Z,26.06
2023-05-05T03:20:07.120Z,25.79
2023-05-05T03:21:06.977Z,25.00
2023-05-05T03:22:07.012Z,25.00
2023-05-05T03:23:07.083Z,26.93
2023-05-05T03:24:07.159Z,25.34
2023-05-05T03:25:07.163Z,26.23
2023-05-05T03:26:07.170Z,25.00
2023-05-05T03:27:07.193Z,25.00
2023-05-05T03:28:07.241Z,26.96
2023-05-05T03:29:07.266Z,25.33
2023-05-05T03:30:07.489Z,27.69
2023-05-05T03:31:07.280Z,25.47
2023-05-05T03:32:07.388Z,25.20
2023-05-05T03:33:07.322Z,22.73
2023-05-05T03:34:07.227Z,15.33
2023-05-05T03:35:07.206Z,13.92
2023-05-05T03:36:07.209Z,9.74
2023-05-05T03:37:07.220Z,27.29
2023-05-05T03:38:07.200Z,25.00
2023-05-05T03:39:07.175Z,28.23
2023-05-05T03:40:07.417Z,25.75
2023-05-05T03:41:07.155Z,27.11
2023-05-05T03:42:07.163Z,25.04
2023-05-05T03:43:07.164Z,24.61
2023-05-05T03:44:07.139Z,28.51
2023-05-05T03:45:07.143Z,28.72
2023-05-05T03:46:07.160Z,26.60
2023-05-05T03:47:07.128Z,27.15
2023-05-05T03:48:07.200Z,26.98
2023-05-05T03:49:07.132Z,26.87
2023-05-05T03:50:07.279Z,30.88
2023-05-05T03:51:07.116Z,27.13
2023-05-05T03:52:07.139Z,25.20
2023-05-05T03:53:07.127Z,27.02
2023-05-05T03:54:07.120Z,26.03
2023-05-05T03:55:07.136Z,27.82
2023-05-05T03:56:07.230Z,27.98
2023-05-05T03:57:07.111Z,27.62
2023-05-05T03:58:07.111Z,26.54
2023-05-05T03:59:07.110Z,25.00
2023-05-05T04:00:07.260Z,30.81
2023-05-05T04:01:07.104Z,27.07
2023-05-05T04:02:07.132Z,34.24
2023-05-05T04:03:07.385Z,31.43
2023-05-05T04:04:07.134Z,31.29
2023-05-05T04:05:07.097Z,36.07
2023-05-05T04:06:07.088Z,33.86
2023-05-05T04:07:07.100Z,37.84
2023-05-05T04:08:07.105Z,38.08
2023-05-05T04:09:07.085Z,35.76
2023-05-05T04:10:07.353Z,37.76
2023-05-05T04:11:07.086Z,44.05
2023-05-05T04:12:07.080Z,41.59
2023-05-05T04:13:07.112Z,41.34
2023-05-05T04:14:07.083Z,41.92
2023-05-05T04:15:07.120Z,38.28
2023-05-05T04:16:07.162Z,36.93
2023-05-05T04:17:07.171Z,43.73
2023-05-05T04:18:07.236Z,42.68
2023-05-05T04:19:07.212Z,40.16
2023-05-05T04:20:07.450Z,38.07
2023-05-05T04:21:07.272Z,47.00
2023-05-05T04:22:07.296Z,41.42
2023-05-05T04:23:07.337Z,42.42
2023-05-05T04:24:07.331Z,40.53
2023-05-05T04:25:07.381Z,39.28
2023-05-05T04:26:07.394Z,38.04
2023-05-05T04:27:07.442Z,40.22
2023-05-05T04:28:07.471Z,45.08
2023-05-05T04:29:07.489Z,39.32
2023-05-05T04:30:07.724Z,38.55
2023-05-05T04:31:07.568Z,34.71
2023-05-05T04:32:07.619Z,36.20
2023-05-05T04:33:07.605Z,37.35
2023-05-05T04:34:07.637Z,30.89
2023-05-05T04:35:07.654Z,36.86
2023-05-05T04:36:07.674Z,32.79
2023-05-05T04:37:07.703Z,40.68
2023-05-05T04:38:07.834Z,30.09
2023-05-05T04:39:07.863Z,35.81
2023-05-05T04:40:07.975Z,32.67
2023-05-05T04:41:07.868Z,28.49
2023-05-05T04:42:07.858Z,32.86
2023-05-05T04:43:07.910Z,31.02
2023-05-05T04:44:07.947Z,36.81
2023-05-05T04:45:07.955Z,39.81
2023-05-05T04:46:08.004Z,28.87
2023-05-05T04:47:08.028Z,30.39
2023-05-05T04:48:08.158Z,42.85
2023-05-05T04:49:08.104Z,41.04
2023-05-05T04:50:08.329Z,38.31
2023-05-05T04:51:08.175Z,40.61
2023-05-05T04:52:08.196Z,37.41
2023-05-05T04:53:08.246Z,36.88
2023-05-05T04:54:08.269Z,36.80
2023-05-05T04:55:08.306Z,38.27
2023-05-05T04:56:08.364Z,41.20
2023-05-05T04:57:08.378Z,40.68
2023-05-05T04:58:08.431Z,38.05
2023-05-05T04:59:08.450Z,35.18
2023-05-05T05:00:08.662Z,34.02
2023-05-05T05:01:08.506Z,48.17
2023-05-05T05:02:08.557Z,56.22
2023-05-05T05:03:08.662Z,74.54
2023-05-05T05:04:08.642Z,104.09
2023-05-05T05:05:08.666Z,121.95
2023-05-05T05:06:08.688Z,142.76
2023-05-05T05:07:08.707Z,149.41
2023-05-05T05:08:08.711Z,152.62
2023-05-05T05:09:08.776Z,162.03
2023-05-05T05:10:08.932Z,169.42
2023-05-05T05:11:08.761Z,184.72
2023-05-05T05:12:08.765Z,187.22
2023-05-05T05:13:10.090Z,194.37
2023-05-05T05:14:08.791Z,198.71
2023-05-05T05:15:08.808Z,207.04
2023-05-05T05:16:08.846Z,209.61
2023-05-05T05:17:08.845Z,218.99
2023-05-05T05:18:08.861Z,223.97
2023-05-05T05:19:08.858Z,227.99
2023-05-05T05:20:09.199Z,240.64
2023-05-05T05:21:08.874Z,242.14
2023-05-05T05:22:08.865Z,242.35
2023-05-05T05:23:08.883Z,243.63
2023-05-05T05:24:08.853Z,247.59
2023-05-05T05:25:08.854Z,252.74
2023-05-05T05:26:08.841Z,266.20
2023-05-05T05:27:10.127Z,246.99
2023-05-05T05:28:10.612Z,250.00
2023-05-05T05:29:08.854Z,248.34
2023-05-05T05:30:09.007Z,249.88
2023-05-05T05:31:08.828Z,248.29
2023-05-05T05:32:08.928Z,248.69
2023-05-05T05:33:08.887Z,249.46
2023-05-05T05:34:10.273Z,245.71
2023-05-05T05:35:08.910Z,246.42
2023-05-05T05:36:08.879Z,245.07
2023-05-05T05:37:08.873Z,239.69
2023-05-05T05:38:08.886Z,239.29
2023-05-05T05:39:08.877Z,220.58
2023-05-05T05:40:09.025Z,211.81
2023-05-05T05:41:08.890Z,244.59
2023-05-05T05:42:08.924Z,240.60
2023-05-05T05:43:08.947Z,239.01
2023-05-05T05:44:08.975Z,227.54
2023-05-05T05:45:09.001Z,212.85
2023-05-05T05:46:09.473Z,207.33
2023-05-05T05:47:09.153Z,198.41
2023-05-05T05:48:09.244Z,184.89
2023-05-05T05:49:09.083Z,184.90
2023-05-05T05:50:09.309Z,169.74
2023-05-05T05:51:09.058Z,158.69
2023-05-05T05:52:09.144Z,138.24
2023-05-05T05:53:09.057Z,119.87
2023-05-05T05:54:09.075Z,96.24
2023-05-05T05:55:09.088Z,75.60
2023-05-05T05:56:09.108Z,55.66
2023-05-05T05:57:09.094Z,25.00
2023-05-05T05:58:09.074Z,26.05
2023-05-05T05:59:09.113Z,24.68
2023-05-05T06:00:09.398Z,25.32
2023-05-05T06:01:09.186Z,24.79
2023-05-05T06:02:09.195Z,23.43
2023-05-05T06:03:09.302Z,18.26
2023-05-05T06:04:09.292Z,13.49
2023-05-05T06:05:09.204Z,16.11
2023-05-05T06:06:09.201Z,19.10
2023-05-05T06:07:09.200Z,31.25
2023-05-05T06:08:09.213Z,30.72
2023-05-05T06:09:09.268Z,25.59
2023-05-05T06:10:25.809Z,28.92
2023-05-05T06:11:10.230Z,28.97
2023-05-05T06:12:09.272Z,29.13
2023-05-05T06:13:09.351Z,29.21
2023-05-05T06:14:09.242Z,25.88
2023-05-05T06:15:09.234Z,22.48
2023-05-05T06:16:09.407Z,30.37
2023-05-05T06:17:09.245Z,39.75
2023-05-05T06:18:09.251Z,43.15
2023-05-05T06:19:09.327Z,50.66
2023-05-05T06:20:09.597Z,57.00
2023-05-05T06:21:09.415Z,57.22
2023-05-05T06:22:09.473Z,57.83
2023-05-05T06:23:09.411Z,62.91
2023-05-05T06:24:09.444Z,64.98
2023-05-05T06:25:09.467Z,68.40
2023-05-05T06:26:09.452Z,59.62
2023-05-05T06:27:09.460Z,65.09
2023-05-05T06:28:09.444Z,63.83
2023-05-05T06:29:11.710Z,59.72
2023-05-05T06:30:09.829Z,70.39
2023-05-05T06:31:09.488Z,72.57
2023-05-05T06:32:09.538Z,74.38
2023-05-05T06:33:09.499Z,80.93
2023-05-05T06:34:09.462Z,72.80
2023-05-05T06:35:09.475Z,68.53
2023-05-05T06:36:09.587Z,65.04
2023-05-05T06:37:09.501Z,72.78
2023-05-05T06:38:09.507Z,71.99
2023-05-05T06:39:09.495Z,68.20
2023-05-05T06:40:09.627Z,69.64
2023-05-05T06:41:09.509Z,63.72
2023-05-05T06:42:09.530Z,64.14
2023-05-05T06:43:09.526Z,64.44
2023-05-05T06:44:09.524Z,67.19
2023-05-05T06:45:09.539Z,73.15
2023-05-05T06:46:09.513Z,81.06
2023-05-05T06:47:09.526Z,83.57
2023-05-05T06:48:09.651Z,83.50
2023-05-05T06:49:09.524Z,82.96
2023-05-05T06:50:09.852Z,81.14
2023-05-05T06:51:09.550Z,74.75
2023-05-05T06:52:09.578Z,69.78
2023-05-05T06:53:09.628Z,53.04
2023-05-05T06:54:09.716Z,46.75
2023-05-05T06:55:09.835Z,41.24
2023-05-05T06:56:09.784Z,39.18
2023-05-05T06:57:09.858Z,48.49
2023-05-05T06:58:09.881Z,42.34
2023-05-05T06:59:09.946Z,35.46
2023-05-05T07:00:10.074Z,25.00
2023-05-05T07:01:10.101Z,25.00
2023-05-05T07:02:10.108Z,24.60
2023-05-05T07:03:10.141Z,24.84
2023-05-05T07:04:10.483Z,24.08
2023-05-05T07:05:10.148Z,14.28
2023-05-05T07:06:10.123Z,5.24
2023-05-05T07:07:10.104Z,3.14
2023-05-05T07:08:10.115Z,25.39
2023-05-05T07:09:10.116Z,35.32
2023-05-05T07:10:10.214Z,38.86
2023-05-05T07:11:10.096Z,36.26
2023-05-05T07:12:10.167Z,34.69
2023-05-05T07:13:10.250Z,41.94
2023-05-05T07:14:10.256Z,32.25
2023-05-05T07:15:23.279Z,28.85
2023-05-05T07:16:11.294Z,27.65
2023-05-05T07:17:10.305Z,28.99
2023-05-05T07:18:10.362Z,29.00
2023-05-05T07:19:10.304Z,30.15
2023-05-05T07:20:10.706Z,28.67
2023-05-05T07:21:10.300Z,32.57
2023-05-05T07:22:10.264Z,33.38
2023-05-05T07:23:10.265Z,29.98
2023-05-05T07:24:10.273Z,31.07
2023-05-05T07:25:10.263Z,33.16
2023-05-05T07:26:10.246Z,35.98
2023-05-05T07:27:10.280Z,37.49
2023-05-05T07:28:10.312Z,31.06
2023-05-05T07:29:10.356Z,35.46
2023-05-05T07:30:14.004Z,40.06
2023-05-05T07:31:11.404Z,40.26
2023-05-05T07:32:10.511Z,40.89
2023-05-05T07:33:10.460Z,42.14
2023-05-05T07:34:10.405Z,42.42
2023-05-05T07:35:10.408Z,45.30
2023-05-05T07:36:10.534Z,45.14
2023-05-05T07:37:10.404Z,47.05
2023-05-05T07:38:10.966Z,42.35
2023-05-05T07:39:10.424Z,45.78
2023-05-05T07:40:10.607Z,55.74
2023-05-05T07:41:10.399Z,61.86
2023-05-05T07:42:10.385Z,72.31
2023-05-05T07:43:10.369Z,72.48
2023-05-05T07:44:10.375Z,64.86
2023-05-05T07:45:10.364Z,53.78
2023-05-05T07:46:10.378Z,53.86
2023-05-05T07:47:10.348Z,49.99
2023-05-05T07:48:10.352Z,42.34
2023-05-05T07:49:10.365Z,36.38
2023-05-05T07:50:10.613Z,33.81
2023-05-05T07:51:10.290Z,30.90
2023-05-05T07:52:10.351Z,25.00
2023-05-05T07:53:14.782Z,25.00
2023-05-05T07:54:10.274Z,25.08
2023-05-05T07:55:10.289Z,25.57
2023-05-05T07:56:10.247Z,25.28
2023-05-05T07:57:10.265Z,21.16
2023-05-05T07:58:10.241Z,14.23
2023-05-05T07:59:10.236Z,27.06
2023-05-05T08:00:10.407Z,26.83
2023-05-05T08:01:10.215Z,26.76
2023-05-05T08:02:10.221Z,30.90
2023-05-05T08:03:11.928Z,35.14
2023-05-05T08:04:10.304Z,40.24
2023-05-05T08:05:10.312Z,50.60
2023-05-05T08:06:10.206Z,51.28
2023-05-05T08:07:10.216Z,56.09
2023-05-05T08:08:10.318Z,65.08
2023-05-05T08:09:10.398Z,62.37
2023-05-05T08:10:10.397Z,52.65
2023-05-05T08:11:10.447Z,53.81
2023-05-05T08:12:10.504Z,37.58
2023-05-05T08:13:10.611Z,25.47
2023-05-05T08:14:10.636Z,23.61
2023-05-05T08:15:10.885Z,25.67
2023-05-05T08:16:10.699Z,24.98
2023-05-05T08:17:11.150Z,21.10
2023-05-05T08:18:10.667Z,25.03
2023-05-05T08:19:25.041Z,25.43
2023-05-05T08:20:11.677Z,25.01
2023-05-05T08:21:10.654Z,25.21
2023-05-05T08:22:10.650Z,25.13
2023-05-05T08:23:10.624Z,26.89
2023-05-05T08:24:10.704Z,33.64
2023-05-05T08:25:10.603Z,46.45
2023-05-05T08:26:10.612Z,71.47
2023-05-05T08:27:10.594Z,80.22
2023-05-05T08:28:10.585Z,84.13
2023-05-05T08:29:10.666Z,84.42
2023-05-05T08:30:10.609Z,90.97
2023-05-05T08:31:10.705Z,91.62
2023-05-05T08:32:10.743Z,86.63
2023-05-05T08:33:10.811Z,82.21
2023-05-05T08:34:10.862Z,67.50
2023-05-05T08:35:11.279Z,38.04
2023-05-05T08:36:10.918Z,12.21
2023-05-05T08:37:10.992Z,13.26
2023-05-05T08:38:11.045Z,15.11
2023-05-05T08:39:11.146Z,16.10
2023-05-05T08:40:11.265Z,25.52
2023-05-05T08:41:11.216Z,25.00
2023-05-05T08:42:11.245Z,20.24
2023-05-05T08:43:11.211Z,14.63
2023-05-05T08:44:11.242Z,2.09
2023-05-05T08:45:11.620Z,0.00
2023-05-05T08:46:11.201Z,0.00
2023-05-05T08:47:11.247Z,0.00
2023-05-05T08:48:11.242Z,0.00
2023-05-05T08:49:11.171Z,0.00
2023-05-05T08:50:11.167Z,0.00
2023-05-05T08:51:11.124Z,0.00
2023-05-05T08:52:11.178Z,0.00
2023-05-05T08:53:11.126Z,0.00
2023-05-05T08:54:11.130Z,17.98
2023-05-05T08:55:11.106Z,18.25
2023-05-05T08:56:11.273Z,19.17
2023-05-05T08:57:11.113Z,21.23
2023-05-05T08:58:11.118Z,27.07
2023-05-05T08:59:11.130Z,37.19
2023-05-05T09:00:11.127Z,47.92
2023-05-05T09:01:11.162Z,50.23
2023-05-05T09:02:11.128Z,55.14
2023-05-05T09:03:11.221Z,63.20
2023-05-05T09:04:11.200Z,69.97
2023-05-05T09:05:11.347Z,75.93
2023-05-05T09:06:11.299Z,75.77
2023-05-05T09:07:11.342Z,88.70
2023-05-05T09:08:11.391Z,90.37
2023-05-05T09:09:11.503Z,98.75
2023-05-05T09:10:11.501Z,101.13
2023-05-05T09:11:11.531Z,106.83
2023-05-05T09:12:11.519Z,108.85
2023-05-05T09:13:11.630Z,107.48
2023-05-05T09:14:11.626Z,109.63
2023-05-05T09:15:11.670Z,96.48
2023-05-05T09:16:11.712Z,92.64
2023-05-05T09:17:11.702Z,92.17
2023-05-05T09:18:11.738Z,90.75
2023-05-05T09:19:11.771Z,91.53
2023-05-05T09:20:11.832Z,92.36
2023-05-05T09:21:11.813Z,92.50
2023-05-05T09:22:11.821Z,93.61
2023-05-05T09:23:11.808Z,93.94
2023-05-05T09:24:11.799Z,89.52
2023-05-05T09:25:11.795Z,93.25
2023-05-05T09:26:11.781Z,87.42
2023-05-05T09:27:11.752Z,87.99
2023-05-05T09:28:11.834Z,90.56
2023-05-05T09:29:11.739Z,97.49
2023-05-05T09:30:11.739Z,98.25
2023-05-05T09:31:11.816Z,96.63
2023-05-05T09:32:11.696Z,104.76
2023-05-05T09:33:11.762Z,112.93
2023-05-05T09:34:11.723Z,117.38
2023-05-05T09:35:11.688Z,114.96
2023-05-05T09:36:11.682Z,117.40
2023-05-05T09:37:11.687Z,117.47
2023-05-05T09:38:11.679Z,116.88
2023-05-05T09:39:11.662Z,117.55
2023-05-05T09:40:11.639Z,117.69
2023-05-05T09:41:11.634Z,117.66
2023-05-05T09:42:11.625Z,117.42
2023-05-05T09:43:11.603Z,112.28
2023-05-05T09:44:11.623Z,102.40
2023-05-05T09:45:11.618Z,103.36
2023-05-05T09:46:11.583Z,89.49
2023-05-05T09:47:25.916Z,91.84
2023-05-05T09:48:12.608Z,92.03
2023-05-05T09:49:11.519Z,92.78
2023-05-05T09:50:11.525Z,95.37
2023-05-05T09:51:11.541Z,101.06
2023-05-05T09:52:11.563Z,110.24
2023-05-05T09:53:11.479Z,115.63
2023-05-05T09:54:11.491Z,120.66
2023-05-05T09:55:11.485Z,120.72
2023-05-05T09:56:11.427Z,121.14
2023-05-05T09:57:11.552Z,122.13
2023-05-05T09:58:11.507Z,124.87
2023-05-05T09:59:11.409Z,121.41
2023-05-05T10:00:11.659Z,125.14
2023-05-05T10:01:11.389Z,127.99
2023-05-05T10:02:11.433Z,130.25
2023-05-05T10:03:11.401Z,135.35
2023-05-05T10:04:11.360Z,141.85
2023-05-05T10:05:11.566Z,146.41
2023-05-05T10:06:11.284Z,156.98
2023-05-05T10:07:11.300Z,164.56
2023-05-05T10:08:11.301Z,169.56
2023-05-05T10:09:11.251Z,169.87
2023-05-05T10:10:11.541Z,172.24
2023-05-05T10:11:11.269Z,178.90
2023-05-05T10:12:11.215Z,192.68
2023-05-05T10:13:11.451Z,215.42
2023-05-05T10:14:11.188Z,222.70
2023-05-05T10:15:11.208Z,229.44
2023-05-05T10:16:11.288Z,236.82
2023-05-05T10:17:11.150Z,244.00
2023-05-05T10:18:11.216Z,248.15
2023-05-05T10:19:11.146Z,248.39
2023-05-05T10:20:11.149Z,249.94
2023-05-05T10:21:11.188Z,253.54
2023-05-05T10:22:11.109Z,260.85
2023-05-05T10:23:11.085Z,277.29
2023-05-05T10:24:11.099Z,270.26
2023-05-05T10:25:11.072Z,265.04
2023-05-05T10:26:11.055Z,259.21
2023-05-05T10:27:12.624Z,252.04
2023-05-05T10:28:11.018Z,250.00
2023-05-05T10:29:11.005Z,250.00
2023-05-05T10:30:11.067Z,249.71
2023-05-05T10:31:24.517Z,250.00
2023-05-05T10:32:33.487Z,250.11
2023-05-05T10:33:30.418Z,250.17
2023-05-05T10:34:12.086Z,250.26
2023-05-05T10:35:10.868Z,251.79
2023-05-05T10:36:10.832Z,251.49
2023-05-05T10:37:10.833Z,248.04
2023-05-05T10:38:10.785Z,214.17
2023-05-05T10:39:10.813Z,172.57
2023-05-05T10:40:11.001Z,140.50
2023-05-05T10:41:10.730Z,122.45
2023-05-05T10:42:10.869Z,114.86
2023-05-05T10:43:10.695Z,110.25
2023-05-05T10:44:10.657Z,105.62
2023-05-05T10:45:10.731Z,105.26
2023-05-05T10:46:10.632Z,104.34
2023-05-05T10:47:10.566Z,102.56
2023-05-05T10:48:10.829Z,104.57
2023-05-05T10:49:12.481Z,105.83
2023-05-05T10:50:10.672Z,97.40
2023-05-05T10:51:10.493Z,97.12
2023-05-05T10:52:10.425Z,95.92
2023-05-05T10:53:10.427Z,80.34
2023-05-05T10:54:10.484Z,64.31
2023-05-05T10:55:10.376Z,51.00
2023-05-05T10:56:10.339Z,45.85
2023-05-05T10:57:10.482Z,43.77
2023-05-05T10:58:10.288Z,40.50
2023-05-05T10:59:10.261Z,48.03
2023-05-05T11:00:10.358Z,51.17
2023-05-05T11:01:10.371Z,54.79
2023-05-05T11:02:10.184Z,54.55
2023-05-05T11:03:10.248Z,53.31
2023-05-05T11:04:10.296Z,52.48
2023-05-05T11:05:10.141Z,53.38
2023-05-05T11:06:10.099Z,56.31
2023-05-05T11:07:13.806Z,65.51
2023-05-05T11:08:10.037Z,65.60
2023-05-05T11:09:10.016Z,65.65
2023-05-05T11:10:10.248Z,58.70
2023-05-05T11:11:09.938Z,52.20
2023-05-05T11:12:09.913Z,50.23
2023-05-05T11:13:09.920Z,47.07
2023-05-05T11:14:09.863Z,49.67
2023-05-05T11:15:09.848Z,52.21
2023-05-05T11:16:09.811Z,52.42
2023-05-05T11:17:09.758Z,53.33
2023-05-05T11:18:09.786Z,55.17
2023-05-05T11:19:09.709Z,49.48
2023-05-05T11:20:09.996Z,46.18
2023-05-05T11:21:09.627Z,46.67
2023-05-05T11:22:09.604Z,48.19
2023-05-05T11:23:09.563Z,55.52
2023-05-05T11:24:09.529Z,64.83
2023-05-05T11:25:09.502Z,68.39
2023-05-05T11:26:09.548Z,65.28
2023-05-05T11:27:09.490Z,66.96
2023-05-05T11:28:09.398Z,76.64
2023-05-05T11:29:09.377Z,82.27
2023-05-05T11:30:09.577Z,87.55
2023-05-05T11:31:09.324Z,85.87
2023-05-05T11:32:09.287Z,82.36
2023-05-05T11:33:09.248Z,84.25
2023-05-05T11:34:09.229Z,84.86
2023-05-05T11:35:09.238Z,83.85
2023-05-05T11:36:09.254Z,81.65
2023-05-05T11:37:09.176Z,78.52
2023-05-05T11:38:09.154Z,80.21
2023-05-05T11:39:09.154Z,84.35
2023-05-05T11:40:09.320Z,87.33
2023-05-05T11:41:09.125Z,88.78
2023-05-05T11:42:10.644Z,89.15
2023-05-05T11:43:09.109Z,93.92
2023-05-05T11:44:09.098Z,98.27
2023-05-05T11:45:09.113Z,101.36
2023-05-05T11:46:09.090Z,101.66
2023-05-05T11:47:09.049Z,105.92
2023-05-05T11:48:09.092Z,109.80
2023-05-05T11:49:09.037Z,114.39
2023-05-05T11:50:09.182Z,118.26
2023-05-05T11:51:09.028Z,119.88
2023-05-05T11:52:09.065Z,120.49
2023-05-05T11:53:09.010Z,121.92
2023-05-05T11:54:09.029Z,122.17
2023-05-05T11:55:09.076Z,121.65
2023-05-05T11:56:08.996Z,121.64
2023-05-05T11:57:09.027Z,121.78
2023-05-05T11:58:08.972Z,122.55
2023-05-05T11:59:08.979Z,125.17
2023-05-05T12:00:09.135Z,128.76
2023-05-05T12:01:09.000Z,132.46
2023-05-05T12:02:09.026Z,136.10
2023-05-05T12:03:09.179Z,139.68
2023-05-05T12:04:09.054Z,140.63
2023-05-05T12:05:09.070Z,143.11
2023-05-05T12:06:08.992Z,146.05
2023-05-05T12:07:08.973Z,148.91
2023-05-05T12:08:09.117Z,152.62
2023-05-05T12:09:08.978Z,155.02
2023-05-05T12:10:09.198Z,158.19
2023-05-05T12:11:08.909Z,159.57
2023-05-05T12:12:08.822Z,162.19
2023-05-05T12:13:08.842Z,164.64
2023-05-05T12:14:09.018Z,165.90
2023-05-05T12:15:08.817Z,166.02
2023-05-05T12:16:08.784Z,168.61
2023-05-05T12:17:08.784Z,169.06
2023-05-05T12:18:08.800Z,165.93
2023-05-05T12:19:08.715Z,160.18
2023-05-05T12:20:09.074Z,158.89
2023-05-05T12:21:08.676Z,162.39
2023-05-05T12:22:08.644Z,161.63
2023-05-05T12:23:08.639Z,160.60
2023-05-05T12:24:08.673Z,158.52
2023-05-05T12:25:08.598Z,157.79
2023-05-05T12:26:08.555Z,158.28
2023-05-05T12:27:08.539Z,155.69
2023-05-05T12:28:08.543Z,155.29
2023-05-05T12:29:08.511Z,155.92
2023-05-05T12:30:08.672Z,156.25
2023-05-05T12:31:08.527Z,155.76
2023-05-05T12:32:08.492Z,154.04
2023-05-05T12:33:08.463Z,155.02
2023-05-05T12:34:08.404Z,155.38
2023-05-05T12:35:08.376Z,156.19
2023-05-05T12:36:08.364Z,155.95
2023-05-05T12:37:08.359Z,157.26
2023-05-05T12:38:08.327Z,159.71
2023-05-05T12:39:08.341Z,160.70
2023-05-05T12:40:08.412Z,160.77
2023-05-05T12:41:08.249Z,161.52
2023-05-05T12:42:08.202Z,162.80
2023-05-05T12:43:08.190Z,165.31
2023-05-05T12:44:08.163Z,168.80
2023-05-05T12:45:08.190Z,171.65
2023-05-05T12:46:08.200Z,174.41
2023-05-05T12:47:08.105Z,175.46